sensor_id;sensor_type;location;lat;lon;timestamp;P1;durP1;ratioP1;P2;durP2;ratioP2
25990;SDS011;13779;-33.886;151.198;2023-02-01T00:02:27;7.63;;;2.30;;
25990;SDS011;13779;-33.886;151.198;2023-02-01T00:04:58;4.80;;;2.23;;
25990;SDS011;13779;-33.886;151.198;2023-02-01T00:07:28;9.90;;;2.20;;
25990;SDS011;13779;-33.886;151.198;2023-02-01T00:09:58;6.90;;;2.30;;
25990;SDS011;13779;-33.886;151.198;2023-02-01T00:12:29;7.38;;;1.77;;
25990;SDS011;13779;-33.886;151.198;2023-02-01T00:14:59;9.52;;;2.42;;
25990;SDS011;13779;-33.886;151.198;2023-02-01T00:17:29;11.38;;;2.92;;
25990;SDS011;13779;-33.886;151.198;2023-02-01T00:19:59;8.35;;;2.40;;
25990;SDS011;13779;-33.886;151.198;2023-02-01T00:22:30;7.75;;;2.28;;
25990;SDS011;13779;-33.886;151.198;2023-02-01T00:25:00;7.28;;;2.10;;
25990;SDS011;13779;-33.886;151.198;2023-02-01T00:27:30;4.68;;;1.83;;
25990;SDS011;13779;-33.886;151.198;2023-02-01T00:30:01;6.25;;;1.27;;
25990;SDS011;13779;-33.886;151.198;2023-02-01T00:32:31;3.38;;;1.60;;
25990;SDS011;13779;-33.886;151.198;2023-02-01T00:35:01;4.40;;;1.63;;
25990;SDS011;13779;-33.886;151.198;2023-02-01T00:37:35;8.55;;;2.10;;
25990;SDS011;13779;-33.886;151.198;2023-02-01T00:40:05;8.88;;;2.05;;
25990;SDS011;13779;-33.886;151.198;2023-02-01T00:45:06;10.00;;;2.22;;
25990;SDS011;13779;-33.886;151.198;2023-02-01T00:47:37;5.55;;;1.60;;
25990;SDS011;13779;-33.886;151.198;2023-02-01T00:50:07;4.70;;;1.42;;
25990;SDS011;13779;-33.886;151.198;2023-02-01T00:52:37;5.55;;;1.50;;
25990;SDS011;13779;-33.886;151.198;2023-02-01T00:55:07;4.50;;;1.50;;
25990;SDS011;13779;-33.886;151.198;2023-02-01T00:57:38;2.37;;;1.07;;
25990;SDS011;13779;-33.886;151.198;2023-02-01T01:00:08;7.10;;;1.50;;
25990;SDS011;13779;-33.886;151.198;2023-02-01T01:02:39;5.55;;;1.30;;
25990;SDS011;13779;-33.886;151.198;2023-02-01T01:05:10;5.57;;;1.50;;
25990;SDS011;13779;-33.886;151.198;2023-02-01T01:07:40;4.32;;;1.33;;
25990;SDS011;13779;-33.886;151.198;2023-02-01T01:10:10;3.95;;;1.20;;
25990;SDS011;13779;-33.886;151.198;2023-02-01T01:12:41;3.33;;;1.20;;
25990;SDS011;13779;-33.886;151.198;2023-02-01T01:15:11;4.85;;;1.40;;
25990;SDS011;13779;-33.886;151.198;2023-02-01T01:17:41;6.83;;;1.50;;
25990;SDS011;13779;-33.886;151.198;2023-02-01T01:20:11;3.35;;;1.25;;
25990;SDS011;13779;-33.886;151.198;2023-02-01T01:22:42;3.65;;;1.38;;
25990;SDS011;13779;-33.886;151.198;2023-02-01T01:25:12;3.93;;;1.20;;
25990;SDS011;13779;-33.886;151.198;2023-02-01T01:27:42;4.25;;;1.30;;
25990;SDS011;13779;-33.886;151.198;2023-02-01T01:30:13;5.13;;;1.40;;
25990;SDS011;13779;-33.886;151.198;2023-02-01T01:35:13;4.90;;;1.40;;
25990;SDS011;13779;-33.886;151.198;2023-02-01T01:37:43;2.35;;;1.08;;
25990;SDS011;13779;-33.886;151.198;2023-02-01T01:40:13;7.97;;;1.80;;
25990;SDS011;13779;-33.886;151.198;2023-02-01T01:45:22;8.68;;;1.63;;
25990;SDS011;13779;-33.886;151.198;2023-02-01T01:50:40;5.55;;;1.70;;
25990;SDS011;13779;-33.886;151.198;2023-02-01T01:53:11;2.50;;;1.45;;
25990;SDS011;13779;-33.886;151.198;2023-02-01T01:55:50;2.85;;;1.30;;
25990;SDS011;13779;-33.886;151.198;2023-02-01T01:58:37;7.63;;;2.13;;
25990;SDS011;13779;-33.886;151.198;2023-02-01T02:01:08;4.70;;;1.40;;
25990;SDS011;13779;-33.886;151.198;2023-02-01T02:03:40;5.40;;;1.90;;
25990;SDS011;13779;-33.886;151.198;2023-02-01T02:06:28;5.90;;;2.15;;
25990;SDS011;13779;-33.886;151.198;2023-02-01T02:09:16;3.85;;;1.85;;
25990;SDS011;13779;-33.886;151.198;2023-02-01T02:11:46;2.83;;;1.70;;
25990;SDS011;13779;-33.886;151.198;2023-02-01T02:14:17;6.05;;;1.40;;
25990;SDS011;13779;-33.886;151.198;2023-02-01T02:25:29;4.30;;;2.03;;
25990;SDS011;13779;-33.886;151.198;2023-02-01T02:28:35;7.05;;;2.10;;
25990;SDS011;13779;-33.886;151.198;2023-02-01T02:34:36;6.72;;;1.63;;
25990;SDS011;13779;-33.886;151.198;2023-02-01T02:40:13;2.83;;;1.30;;
25990;SDS011;13779;-33.886;151.198;2023-02-01T02:43:15;4.55;;;1.38;;
25990;SDS011;13779;-33.886;151.198;2023-02-01T02:46:40;3.05;;;1.20;;
25990;SDS011;13779;-33.886;151.198;2023-02-01T02:49:46;6.72;;;1.70;;
25990;SDS011;13779;-33.886;151.198;2023-02-01T02:52:40;5.07;;;1.40;;
25990;SDS011;13779;-33.886;151.198;2023-02-01T02:55:36;2.70;;;1.10;;
25990;SDS011;13779;-33.886;151.198;2023-02-01T02:58:08;7.00;;;1.58;;
25990;SDS011;13779;-33.886;151.198;2023-02-01T03:00:59;2.90;;;1.30;;
25990;SDS011;13779;-33.886;151.198;2023-02-01T03:03:50;6.00;;;1.30;;
25990;SDS011;13779;-33.886;151.198;2023-02-01T03:06:44;6.15;;;1.67;;
25990;SDS011;13779;-33.886;151.198;2023-02-01T03:09:31;7.78;;;1.70;;
25990;SDS011;13779;-33.886;151.198;2023-02-01T03:12:07;4.97;;;1.50;;
25990;SDS011;13779;-33.886;151.198;2023-02-01T03:15:03;3.47;;;1.30;;
25990;SDS011;13779;-33.886;151.198;2023-02-01T03:17:40;5.95;;;1.58;;
25990;SDS011;13779;-33.886;151.198;2023-02-01T03:20:13;7.55;;;1.63;;
25990;SDS011;13779;-33.886;151.198;2023-02-01T03:22:48;6.35;;;1.13;;
25990;SDS011;13779;-33.886;151.198;2023-02-01T03:25:23;4.38;;;1.55;;
25990;SDS011;13779;-33.886;151.198;2023-02-01T03:28:00;6.60;;;1.33;;
25990;SDS011;13779;-33.886;151.198;2023-02-01T03:30:46;4.88;;;1.42;;
25990;SDS011;13779;-33.886;151.198;2023-02-01T03:33:20;6.55;;;2.55;;
25990;SDS011;13779;-33.886;151.198;2023-02-01T03:38:38;5.18;;;1.70;;
25990;SDS011;13779;-33.886;151.198;2023-02-01T03:41:33;4.60;;;1.52;;
25990;SDS011;13779;-33.886;151.198;2023-02-01T03:47:22;4.30;;;1.23;;
25990;SDS011;13779;-33.886;151.198;2023-02-01T03:52:24;5.50;;;1.70;;
25990;SDS011;13779;-33.886;151.198;2023-02-01T03:55:03;6.47;;;1.40;;
25990;SDS011;13779;-33.886;151.198;2023-02-01T03:57:35;4.88;;;1.45;;
25990;SDS011;13779;-33.886;151.198;2023-02-01T04:00:15;3.53;;;1.20;;
25990;SDS011;13779;-33.886;151.198;2023-02-01T04:02:48;3.80;;;1.30;;
25990;SDS011;13779;-33.886;151.198;2023-02-01T04:05:20;6.82;;;1.45;;
25990;SDS011;13779;-33.886;151.198;2023-02-01T04:07:51;4.90;;;1.33;;
25990;SDS011;13779;-33.886;151.198;2023-02-01T04:10:22;4.05;;;1.40;;
25990;SDS011;13779;-33.886;151.198;2023-02-01T04:12:53;3.58;;;1.25;;
25990;SDS011;13779;-33.886;151.198;2023-02-01T04:15:23;5.68;;;1.55;;
25990;SDS011;13779;-33.886;151.198;2023-02-01T04:17:54;4.40;;;1.60;;
25990;SDS011;13779;-33.886;151.198;2023-02-01T04:20:24;5.03;;;2.22;;
25990;SDS011;13779;-33.886;151.198;2023-02-01T04:22:54;3.33;;;1.40;;
25990;SDS011;13779;-33.886;151.198;2023-02-01T04:25:24;4.87;;;1.30;;
25990;SDS011;13779;-33.886;151.198;2023-02-01T04:27:54;7.43;;;1.90;;
25990;SDS011;13779;-33.886;151.198;2023-02-01T04:30:24;5.40;;;1.50;;
25990;SDS011;13779;-33.886;151.198;2023-02-01T04:32:54;4.03;;;1.33;;
25990;SDS011;13779;-33.886;151.198;2023-02-01T04:35:25;6.60;;;1.60;;
25990;SDS011;13779;-33.886;151.198;2023-02-01T04:37:55;3.43;;;1.30;;
25990;SDS011;13779;-33.886;151.198;2023-02-01T04:40:25;6.55;;;1.95;;
25990;SDS011;13779;-33.886;151.198;2023-02-01T04:42:55;6.73;;;1.30;;
25990;SDS011;13779;-33.886;151.198;2023-02-01T04:45:25;5.53;;;1.50;;
25990;SDS011;13779;-33.886;151.198;2023-02-01T04:47:55;2.23;;;1.33;;
25990;SDS011;13779;-33.886;151.198;2023-02-01T04:50:26;4.47;;;1.20;;
25990;SDS011;13779;-33.886;151.198;2023-02-01T04:52:56;8.93;;;1.27;;
25990;SDS011;13779;-33.886;151.198;2023-02-01T04:55:26;5.18;;;1.50;;
25990;SDS011;13779;-33.886;151.198;2023-02-01T04:57:56;8.02;;;1.73;;
25990;SDS011;13779;-33.886;151.198;2023-02-01T05:00:26;3.22;;;1.10;;
25990;SDS011;13779;-33.886;151.198;2023-02-01T05:02:56;7.67;;;1.40;;
25990;SDS011;13779;-33.886;151.198;2023-02-01T05:05:27;5.43;;;1.53;;
25990;SDS011;13779;-33.886;151.198;2023-02-01T05:07:57;7.18;;;1.83;;
25990;SDS011;13779;-33.886;151.198;2023-02-01T05:10:27;5.28;;;2.25;;
25990;SDS011;13779;-33.886;151.198;2023-02-01T05:12:57;5.18;;;1.58;;
25990;SDS011;13779;-33.886;151.198;2023-02-01T05:15:45;6.32;;;1.63;;
25990;SDS011;13779;-33.886;151.198;2023-02-01T05:18:16;8.05;;;2.10;;
25990;SDS011;13779;-33.886;151.198;2023-02-01T05:20:46;7.33;;;1.60;;
25990;SDS011;13779;-33.886;151.198;2023-02-01T05:23:16;5.95;;;1.65;;
25990;SDS011;13779;-33.886;151.198;2023-02-01T05:25:46;6.07;;;1.30;;
25990;SDS011;13779;-33.886;151.198;2023-02-01T05:28:16;4.70;;;1.50;;
25990;SDS011;13779;-33.886;151.198;2023-02-01T05:30:46;11.77;;;1.75;;
25990;SDS011;13779;-33.886;151.198;2023-02-01T05:33:16;5.73;;;1.50;;
25990;SDS011;13779;-33.886;151.198;2023-02-01T05:35:46;11.20;;;1.73;;
25990;SDS011;13779;-33.886;151.198;2023-02-01T05:38:18;6.68;;;1.90;;
25990;SDS011;13779;-33.886;151.198;2023-02-01T05:40:48;5.40;;;1.45;;
25990;SDS011;13779;-33.886;151.198;2023-02-01T05:43:19;8.20;;;2.88;;
25990;SDS011;13779;-33.886;151.198;2023-02-01T05:45:49;5.37;;;1.83;;
25990;SDS011;13779;-33.886;151.198;2023-02-01T05:48:20;9.00;;;3.08;;
25990;SDS011;13779;-33.886;151.198;2023-02-01T05:50:51;6.53;;;2.55;;
25990;SDS011;13779;-33.886;151.198;2023-02-01T05:53:21;10.87;;;3.80;;
25990;SDS011;13779;-33.886;151.198;2023-02-01T05:55:51;7.75;;;2.40;;
25990;SDS011;13779;-33.886;151.198;2023-02-01T05:58:21;7.18;;;2.13;;
25990;SDS011;13779;-33.886;151.198;2023-02-01T06:00:51;8.63;;;2.05;;
25990;SDS011;13779;-33.886;151.198;2023-02-01T06:03:22;5.82;;;1.70;;
25990;SDS011;13779;-33.886;151.198;2023-02-01T06:05:52;4.57;;;1.98;;
25990;SDS011;13779;-33.886;151.198;2023-02-01T06:08:22;7.57;;;2.67;;
25990;SDS011;13779;-33.886;151.198;2023-02-01T06:11:00;7.82;;;2.15;;
25990;SDS011;13779;-33.886;151.198;2023-02-01T06:13:33;7.10;;;3.10;;
25990;SDS011;13779;-33.886;151.198;2023-02-01T06:16:03;5.13;;;1.88;;
25990;SDS011;13779;-33.886;151.198;2023-02-01T06:18:35;5.13;;;2.03;;
25990;SDS011;13779;-33.886;151.198;2023-02-01T06:21:06;14.30;;;2.20;;
25990;SDS011;13779;-33.886;151.198;2023-02-01T06:23:36;4.80;;;2.08;;
25990;SDS011;13779;-33.886;151.198;2023-02-01T06:26:06;7.10;;;1.98;;
25990;SDS011;13779;-33.886;151.198;2023-02-01T06:28:36;6.43;;;1.80;;
25990;SDS011;13779;-33.886;151.198;2023-02-01T06:31:07;6.47;;;1.83;;
25990;SDS011;13779;-33.886;151.198;2023-02-01T06:33:38;7.18;;;2.17;;
25990;SDS011;13779;-33.886;151.198;2023-02-01T06:36:10;4.65;;;1.80;;
25990;SDS011;13779;-33.886;151.198;2023-02-01T06:38:47;9.60;;;2.13;;
25990;SDS011;13779;-33.886;151.198;2023-02-01T06:41:17;8.52;;;2.22;;
25990;SDS011;13779;-33.886;151.198;2023-02-01T06:43:51;7.43;;;2.10;;
25990;SDS011;13779;-33.886;151.198;2023-02-01T06:46:21;10.20;;;2.22;;
25990;SDS011;13779;-33.886;151.198;2023-02-01T06:48:52;3.45;;;1.60;;
25990;SDS011;13779;-33.886;151.198;2023-02-01T06:51:23;9.30;;;2.10;;
25990;SDS011;13779;-33.886;151.198;2023-02-01T06:53:57;8.05;;;2.63;;
25990;SDS011;13779;-33.886;151.198;2023-02-01T06:56:27;8.80;;;2.20;;
25990;SDS011;13779;-33.886;151.198;2023-02-01T06:58:59;5.68;;;2.25;;
25990;SDS011;13779;-33.886;151.198;2023-02-01T07:01:33;10.65;;;2.25;;
25990;SDS011;13779;-33.886;151.198;2023-02-01T07:04:05;6.10;;;2.05;;
25990;SDS011;13779;-33.886;151.198;2023-02-01T07:06:38;9.18;;;2.22;;
25990;SDS011;13779;-33.886;151.198;2023-02-01T07:09:09;8.00;;;2.60;;
25990;SDS011;13779;-33.886;151.198;2023-02-01T07:11:40;7.68;;;2.00;;
25990;SDS011;13779;-33.886;151.198;2023-02-01T07:14:12;5.97;;;1.73;;
25990;SDS011;13779;-33.886;151.198;2023-02-01T07:16:44;6.88;;;1.83;;
25990;SDS011;13779;-33.886;151.198;2023-02-01T07:19:14;4.53;;;1.60;;
25990;SDS011;13779;-33.886;151.198;2023-02-01T07:21:45;5.75;;;2.13;;
25990;SDS011;13779;-33.886;151.198;2023-02-01T07:24:16;10.73;;;2.33;;
25990;SDS011;13779;-33.886;151.198;2023-02-01T07:26:46;8.55;;;2.10;;
25990;SDS011;13779;-33.886;151.198;2023-02-01T07:31:47;13.35;;;2.53;;
25990;SDS011;13779;-33.886;151.198;2023-02-01T07:34:17;10.70;;;2.30;;
25990;SDS011;13779;-33.886;151.198;2023-02-01T07:36:47;11.70;;;2.57;;
25990;SDS011;13779;-33.886;151.198;2023-02-01T07:39:17;6.63;;;2.28;;
25990;SDS011;13779;-33.886;151.198;2023-02-01T07:41:51;8.50;;;3.00;;
25990;SDS011;13779;-33.886;151.198;2023-02-01T07:44:22;8.40;;;1.80;;
25990;SDS011;13779;-33.886;151.198;2023-02-01T07:46:53;10.50;;;3.25;;
25990;SDS011;13779;-33.886;151.198;2023-02-01T07:49:23;5.10;;;2.17;;
25990;SDS011;13779;-33.886;151.198;2023-02-01T07:51:53;5.03;;;2.17;;
25990;SDS011;13779;-33.886;151.198;2023-02-01T07:54:23;5.50;;;1.80;;
25990;SDS011;13779;-33.886;151.198;2023-02-01T07:56:53;9.07;;;2.30;;
25990;SDS011;13779;-33.886;151.198;2023-02-01T07:59:23;6.03;;;2.30;;
25990;SDS011;13779;-33.886;151.198;2023-02-01T08:01:53;7.90;;;2.13;;
25990;SDS011;13779;-33.886;151.198;2023-02-01T08:04:24;4.97;;;1.83;;
25990;SDS011;13779;-33.886;151.198;2023-02-01T08:06:54;5.60;;;1.90;;
25990;SDS011;13779;-33.886;151.198;2023-02-01T08:09:24;5.55;;;1.98;;
25990;SDS011;13779;-33.886;151.198;2023-02-01T08:11:54;4.30;;;1.80;;
25990;SDS011;13779;-33.886;151.198;2023-02-01T08:14:24;5.80;;;1.65;;
25990;SDS011;13779;-33.886;151.198;2023-02-01T08:16:55;8.40;;;2.22;;
25990;SDS011;13779;-33.886;151.198;2023-02-01T08:19:25;7.43;;;1.77;;
25990;SDS011;13779;-33.886;151.198;2023-02-01T08:21:55;6.72;;;1.80;;
25990;SDS011;13779;-33.886;151.198;2023-02-01T08:24:25;11.07;;;1.60;;
25990;SDS011;13779;-33.886;151.198;2023-02-01T08:26:55;6.97;;;2.05;;
25990;SDS011;13779;-33.886;151.198;2023-02-01T08:29:25;8.57;;;2.22;;
25990;SDS011;13779;-33.886;151.198;2023-02-01T08:31:56;8.48;;;2.28;;
25990;SDS011;13779;-33.886;151.198;2023-02-01T08:34:26;9.93;;;2.20;;
25990;SDS011;13779;-33.886;151.198;2023-02-01T08:36:56;6.57;;;2.27;;
25990;SDS011;13779;-33.886;151.198;2023-02-01T08:39:26;6.20;;;1.95;;
25990;SDS011;13779;-33.886;151.198;2023-02-01T08:41:56;8.88;;;1.70;;
25990;SDS011;13779;-33.886;151.198;2023-02-01T08:44:44;4.50;;;1.88;;
25990;SDS011;13779;-33.886;151.198;2023-02-01T08:47:15;5.28;;;2.47;;
25990;SDS011;13779;-33.886;151.198;2023-02-01T08:49:46;10.88;;;2.78;;
25990;SDS011;13779;-33.886;151.198;2023-02-01T08:52:16;6.68;;;2.30;;
25990;SDS011;13779;-33.886;151.198;2023-02-01T08:54:46;8.85;;;2.30;;
25990;SDS011;13779;-33.886;151.198;2023-02-01T08:57:19;6.75;;;1.90;;
25990;SDS011;13779;-33.886;151.198;2023-02-01T08:59:49;11.10;;;3.90;;
25990;SDS011;13779;-33.886;151.198;2023-02-01T09:02:19;6.32;;;2.20;;
25990;SDS011;13779;-33.886;151.198;2023-02-01T09:04:51;8.43;;;2.90;;
25990;SDS011;13779;-33.886;151.198;2023-02-01T09:07:21;10.55;;;2.42;;
25990;SDS011;13779;-33.886;151.198;2023-02-01T09:09:51;8.05;;;2.47;;
25990;SDS011;13779;-33.886;151.198;2023-02-01T09:12:22;6.82;;;2.13;;
25990;SDS011;13779;-33.886;151.198;2023-02-01T09:14:52;3.58;;;2.10;;
25990;SDS011;13779;-33.886;151.198;2023-02-01T09:17:25;7.22;;;2.70;;
25990;SDS011;13779;-33.886;151.198;2023-02-01T09:19:56;11.27;;;2.92;;
25990;SDS011;13779;-33.886;151.198;2023-02-01T09:22:26;10.52;;;3.25;;
25990;SDS011;13779;-33.886;151.198;2023-02-01T09:24:56;9.50;;;3.15;;
25990;SDS011;13779;-33.886;151.198;2023-02-01T09:27:27;8.32;;;3.08;;
25990;SDS011;13779;-33.886;151.198;2023-02-01T09:30:00;13.55;;;2.97;;
25990;SDS011;13779;-33.886;151.198;2023-02-01T09:32:31;14.30;;;5.20;;
25990;SDS011;13779;-33.886;151.198;2023-02-01T09:35:01;19.40;;;8.30;;
25990;SDS011;13779;-33.886;151.198;2023-02-01T09:37:31;9.18;;;5.18;;
25990;SDS011;13779;-33.886;151.198;2023-02-01T09:40:01;11.15;;;4.20;;
25990;SDS011;13779;-33.886;151.198;2023-02-01T09:45:20;9.55;;;3.47;;
25990;SDS011;13779;-33.886;151.198;2023-02-01T09:48:17;10.15;;;2.90;;
25990;SDS011;13779;-33.886;151.198;2023-02-01T09:50:55;13.50;;;3.47;;
25990;SDS011;13779;-33.886;151.198;2023-02-01T09:53:43;14.82;;;3.08;;
25990;SDS011;13779;-33.886;151.198;2023-02-01T09:56:21;12.65;;;3.90;;
25990;SDS011;13779;-33.886;151.198;2023-02-01T09:59:22;10.38;;;2.65;;
25990;SDS011;13779;-33.886;151.198;2023-02-01T10:02:16;13.27;;;2.65;;
25990;SDS011;13779;-33.886;151.198;2023-02-01T10:04:53;12.55;;;2.97;;
25990;SDS011;13779;-33.886;151.198;2023-02-01T10:13:32;12.32;;;3.45;;
25990;SDS011;13779;-33.886;151.198;2023-02-01T10:16:19;12.57;;;2.63;;
25990;SDS011;13779;-33.886;151.198;2023-02-01T10:19:20;9.43;;;2.40;;
25990;SDS011;13779;-33.886;151.198;2023-02-01T10:22:04;12.77;;;2.53;;
25990;SDS011;13779;-33.886;151.198;2023-02-01T10:24:45;10.75;;;2.80;;
25990;SDS011;13779;-33.886;151.198;2023-02-01T10:27:29;11.32;;;2.70;;
25990;SDS011;13779;-33.886;151.198;2023-02-01T10:30:22;9.68;;;2.90;;
25990;SDS011;13779;-33.886;151.198;2023-02-01T10:33:01;7.80;;;2.58;;
25990;SDS011;13779;-33.886;151.198;2023-02-01T10:36:05;12.80;;;2.40;;
25990;SDS011;13779;-33.886;151.198;2023-02-01T10:38:39;9.40;;;2.35;;
25990;SDS011;13779;-33.886;151.198;2023-02-01T10:41:11;9.55;;;2.85;;
25990;SDS011;13779;-33.886;151.198;2023-02-01T10:43:54;16.98;;;3.35;;
25990;SDS011;13779;-33.886;151.198;2023-02-01T10:46:27;11.85;;;3.13;;
25990;SDS011;13779;-33.886;151.198;2023-02-01T10:48:59;8.52;;;2.60;;
25990;SDS011;13779;-33.886;151.198;2023-02-01T10:57:05;10.93;;;2.90;;
25990;SDS011;13779;-33.886;151.198;2023-02-01T10:59:48;10.48;;;3.00;;
25990;SDS011;13779;-33.886;151.198;2023-02-01T11:02:31;9.00;;;2.33;;
25990;SDS011;13779;-33.886;151.198;2023-02-01T11:05:07;8.10;;;2.80;;
25990;SDS011;13779;-33.886;151.198;2023-02-01T11:07:45;8.85;;;2.75;;
25990;SDS011;13779;-33.886;151.198;2023-02-01T11:10:42;10.35;;;2.67;;
25990;SDS011;13779;-33.886;151.198;2023-02-01T11:13:16;9.93;;;2.70;;
25990;SDS011;13779;-33.886;151.198;2023-02-01T11:15:54;12.55;;;2.85;;
25990;SDS011;13779;-33.886;151.198;2023-02-01T11:18:26;10.38;;;2.97;;
25990;SDS011;13779;-33.886;151.198;2023-02-01T11:20:58;9.20;;;2.63;;
25990;SDS011;13779;-33.886;151.198;2023-02-01T11:23:29;8.25;;;2.40;;
25990;SDS011;13779;-33.886;151.198;2023-02-01T11:26:07;14.20;;;3.00;;
25990;SDS011;13779;-33.886;151.198;2023-02-01T11:28:46;9.25;;;2.72;;
25990;SDS011;13779;-33.886;151.198;2023-02-01T11:31:42;13.70;;;2.78;;
25990;SDS011;13779;-33.886;151.198;2023-02-01T11:34:15;10.15;;;2.60;;
25990;SDS011;13779;-33.886;151.198;2023-02-01T11:36:51;13.20;;;2.70;;
25990;SDS011;13779;-33.886;151.198;2023-02-01T11:39:29;13.25;;;4.30;;
25990;SDS011;13779;-33.886;151.198;2023-02-01T11:42:05;6.88;;;2.45;;
25990;SDS011;13779;-33.886;151.198;2023-02-01T11:44:44;10.60;;;2.70;;
25990;SDS011;13779;-33.886;151.198;2023-02-01T11:47:23;7.75;;;2.80;;
25990;SDS011;13779;-33.886;151.198;2023-02-01T11:50:00;9.05;;;2.40;;
25990;SDS011;13779;-33.886;151.198;2023-02-01T11:52:42;9.35;;;2.63;;
25990;SDS011;13779;-33.886;151.198;2023-02-01T12:01:35;8.50;;;2.60;;
25990;SDS011;13779;-33.886;151.198;2023-02-01T12:07:21;10.80;;;3.22;;
25990;SDS011;13779;-33.886;151.198;2023-02-01T12:13:05;7.90;;;2.92;;
25990;SDS011;13779;-33.886;151.198;2023-02-01T12:16:09;8.52;;;2.70;;
25990;SDS011;13779;-33.886;151.198;2023-02-01T12:18:51;8.68;;;2.60;;
25990;SDS011;13779;-33.886;151.198;2023-02-01T12:36:26;8.00;;;2.45;;
25990;SDS011;13779;-33.886;151.198;2023-02-01T12:39:23;9.63;;;3.70;;
25990;SDS011;13779;-33.886;151.198;2023-02-01T12:47:38;10.90;;;3.03;;
25990;SDS011;13779;-33.886;151.198;2023-02-01T12:52:56;9.20;;;2.60;;
25990;SDS011;13779;-33.886;151.198;2023-02-01T12:55:56;11.45;;;2.55;;
25990;SDS011;13779;-33.886;151.198;2023-02-01T12:58:46;10.95;;;2.90;;
25990;SDS011;13779;-33.886;151.198;2023-02-01T13:01:22;11.73;;;2.83;;
25990;SDS011;13779;-33.886;151.198;2023-02-01T13:07:10;9.15;;;2.42;;
25990;SDS011;13779;-33.886;151.198;2023-02-01T13:09:56;9.18;;;3.05;;
25990;SDS011;13779;-33.886;151.198;2023-02-01T13:18:01;8.73;;;2.58;;
25990;SDS011;13779;-33.886;151.198;2023-02-01T13:20:36;11.23;;;3.05;;
25990;SDS011;13779;-33.886;151.198;2023-02-01T13:23:19;9.57;;;2.63;;
25990;SDS011;13779;-33.886;151.198;2023-02-01T13:26:02;7.63;;;2.70;;
25990;SDS011;13779;-33.886;151.198;2023-02-01T13:28:44;9.23;;;2.50;;
25990;SDS011;13779;-33.886;151.198;2023-02-01T13:42:57;10.75;;;3.92;;
25990;SDS011;13779;-33.886;151.198;2023-02-01T13:45:32;14.38;;;3.33;;
25990;SDS011;13779;-33.886;151.198;2023-02-01T13:48:05;7.95;;;2.97;;
25990;SDS011;13779;-33.886;151.198;2023-02-01T13:50:44;7.90;;;2.38;;
25990;SDS011;13779;-33.886;151.198;2023-02-01T13:53:27;10.93;;;2.90;;
25990;SDS011;13779;-33.886;151.198;2023-02-01T13:56:13;14.63;;;2.80;;
25990;SDS011;13779;-33.886;151.198;2023-02-01T13:58:46;10.70;;;3.13;;
25990;SDS011;13779;-33.886;151.198;2023-02-01T14:03:54;8.85;;;3.17;;
25990;SDS011;13779;-33.886;151.198;2023-02-01T14:11:50;10.07;;;2.40;;
25990;SDS011;13779;-33.886;151.198;2023-02-01T14:19:28;8.20;;;2.40;;
25990;SDS011;13779;-33.886;151.198;2023-02-01T14:24:54;10.98;;;2.25;;
25990;SDS011;13779;-33.886;151.198;2023-02-01T14:27:30;8.48;;;2.65;;
25990;SDS011;13779;-33.886;151.198;2023-02-01T14:30:11;5.90;;;2.13;;
25990;SDS011;13779;-33.886;151.198;2023-02-01T14:32:45;8.13;;;2.30;;
25990;SDS011;13779;-33.886;151.198;2023-02-01T14:35:24;9.83;;;2.97;;
25990;SDS011;13779;-33.886;151.198;2023-02-01T14:37:59;10.00;;;2.65;;
25990;SDS011;13779;-33.886;151.198;2023-02-01T14:40:35;11.27;;;2.78;;
25990;SDS011;13779;-33.886;151.198;2023-02-01T14:43:07;5.30;;;2.45;;
25990;SDS011;13779;-33.886;151.198;2023-02-01T14:50:48;6.70;;;2.28;;
25990;SDS011;13779;-33.886;151.198;2023-02-01T14:53:21;7.93;;;2.28;;
25990;SDS011;13779;-33.886;151.198;2023-02-01T15:01:33;7.70;;;2.08;;
25990;SDS011;13779;-33.886;151.198;2023-02-01T15:04:11;5.95;;;1.73;;
25990;SDS011;13779;-33.886;151.198;2023-02-01T15:06:51;7.88;;;2.40;;
25990;SDS011;13779;-33.886;151.198;2023-02-01T15:09:37;4.20;;;1.75;;
25990;SDS011;13779;-33.886;151.198;2023-02-01T15:17:41;5.72;;;2.30;;
25990;SDS011;13779;-33.886;151.198;2023-02-01T15:20:20;5.72;;;2.13;;
25990;SDS011;13779;-33.886;151.198;2023-02-01T15:23:00;8.45;;;2.35;;
25990;SDS011;13779;-33.886;151.198;2023-02-01T15:25:37;4.95;;;2.20;;
25990;SDS011;13779;-33.886;151.198;2023-02-01T15:28:12;8.07;;;2.10;;
25990;SDS011;13779;-33.886;151.198;2023-02-01T15:30:58;9.07;;;1.98;;
25990;SDS011;13779;-33.886;151.198;2023-02-01T15:33:30;7.13;;;2.03;;
25990;SDS011;13779;-33.886;151.198;2023-02-01T15:36:08;6.18;;;2.00;;
25990;SDS011;13779;-33.886;151.198;2023-02-01T15:46:20;9.57;;;2.28;;
25990;SDS011;13779;-33.886;151.198;2023-02-01T15:49:02;7.40;;;2.60;;
25990;SDS011;13779;-33.886;151.198;2023-02-01T15:51:33;5.03;;;2.10;;
25990;SDS011;13779;-33.886;151.198;2023-02-01T15:54:06;8.02;;;2.40;;
25990;SDS011;13779;-33.886;151.198;2023-02-01T15:56:42;6.30;;;2.50;;
25990;SDS011;13779;-33.886;151.198;2023-02-01T15:59:15;3.92;;;1.88;;
25990;SDS011;13779;-33.886;151.198;2023-02-01T16:01:47;7.68;;;2.47;;
25990;SDS011;13779;-33.886;151.198;2023-02-01T16:04:23;10.45;;;2.22;;
25990;SDS011;13779;-33.886;151.198;2023-02-01T16:07:26;4.68;;;2.35;;
25990;SDS011;13779;-33.886;151.198;2023-02-01T16:10:00;5.82;;;2.10;;
25990;SDS011;13779;-33.886;151.198;2023-02-01T16:15:10;7.25;;;2.45;;
25990;SDS011;13779;-33.886;151.198;2023-02-01T16:17:40;3.90;;;2.00;;
25990;SDS011;13779;-33.886;151.198;2023-02-01T16:20:12;4.75;;;2.30;;
25990;SDS011;13779;-33.886;151.198;2023-02-01T16:22:42;6.05;;;2.05;;
25990;SDS011;13779;-33.886;151.198;2023-02-01T16:25:12;5.90;;;2.17;;
25990;SDS011;13779;-33.886;151.198;2023-02-01T16:27:42;7.00;;;2.30;;
25990;SDS011;13779;-33.886;151.198;2023-02-01T16:30:12;8.50;;;2.58;;
25990;SDS011;13779;-33.886;151.198;2023-02-01T16:32:43;6.43;;;2.63;;
25990;SDS011;13779;-33.886;151.198;2023-02-01T16:35:18;6.95;;;2.10;;
25990;SDS011;13779;-33.886;151.198;2023-02-01T16:37:58;6.35;;;2.47;;
25990;SDS011;13779;-33.886;151.198;2023-02-01T16:40:28;5.75;;;2.25;;
25990;SDS011;13779;-33.886;151.198;2023-02-01T16:45:29;8.68;;;2.83;;
25990;SDS011;13779;-33.886;151.198;2023-02-01T16:47:59;8.77;;;2.42;;
25990;SDS011;13779;-33.886;151.198;2023-02-01T16:50:29;4.15;;;2.05;;
25990;SDS011;13779;-33.886;151.198;2023-02-01T16:53:02;4.70;;;2.03;;
25990;SDS011;13779;-33.886;151.198;2023-02-01T16:55:35;6.80;;;2.50;;
25990;SDS011;13779;-33.886;151.198;2023-02-01T16:58:05;9.10;;;3.00;;
25990;SDS011;13779;-33.886;151.198;2023-02-01T17:00:36;6.77;;;2.17;;
25990;SDS011;13779;-33.886;151.198;2023-02-01T17:03:06;7.90;;;2.65;;
25990;SDS011;13779;-33.886;151.198;2023-02-01T17:05:36;5.65;;;2.08;;
25990;SDS011;13779;-33.886;151.198;2023-02-01T17:08:06;8.88;;;2.33;;
25990;SDS011;13779;-33.886;151.198;2023-02-01T17:10:41;4.32;;;1.90;;
25990;SDS011;13779;-33.886;151.198;2023-02-01T17:13:14;6.33;;;2.50;;
25990;SDS011;13779;-33.886;151.198;2023-02-01T17:15:56;6.13;;;2.13;;
25990;SDS011;13779;-33.886;151.198;2023-02-01T17:18:35;4.05;;;2.03;;
25990;SDS011;13779;-33.886;151.198;2023-02-01T17:21:05;8.03;;;2.20;;
25990;SDS011;13779;-33.886;151.198;2023-02-01T17:23:38;7.50;;;2.35;;